Portada
METAR-TAF:

METAR-TAF

Aeroports :

Najran, Aràbia Saudita

latitud: 17-37N, longitud: 044-25E, altitud: 1212 m

Observació

L'informe es va fer fa 40 minuts, a les 05:00 UTC
Vent 2 kt del Nord/Nord-Est
Temperatura 29°C
Humitat 15%
Pressió 1017 hPa
Visibilitat 10 km o més
sense núvols per sota de 1500 mi sense presència de cumulonimbus.

METAR: OENG 150500Z 02002KT CAVOK 29/00 Q1017 NOSIG

Hora: 08:40 (05:40 UTC)

Pronòstic

L'informe es va fer fa 6 hores i 40 minuts, a les 23:00 UTC
Pronòstic vàlid del 15 a les 00 UTC al 16 a les 06 UTC
Vent 6 kt del Oest/Sud-Oest
Visibilitat 10 km o més
Núvols disperses a una alçada de 3000 ft
Núvols disperses a una alçada de 10000 ft
Evolucionant progressivament
l' 15 a les 06 UTC al 15 a les 08 UTC
Vent 12 kt del Nord-Est

TAF: OENG 142300Z 1500/1606 25006KT 9999 SCT030 SCT100 BECMG 1506/1508 05012KT

Observacions i pronòstics meteorològics de més de 4000 aeroports (METAR i TAF).

Les estacions disponibles són els punts grocs i vermells al mapa.

Posi el ratolí al punt desitjat per veure el nom de l'estació.

Feu clic per veure les observacions i els pronòstics meteorològics.

Per canviar el mapa: feu clic els botons verds amb una creu de color negre per apropar; al botó verd amb un guió per allunyar la imatge; o en les fletxes verdes per a mapes adjacents.


METAR-TAF: